Time;durP1;ratioP1;P1;durP2;ratioP2;P2;SDS_P1;SDS_P2;PMS_P1;PMS_P2;Temp;Humidity;BMP_temperature;BMP_pressure;BME280_temperature;BME280_humidity;BME280_pressure;Samples;Min_cycle;Max_cycle;Signal;HPM_P1;HPM_P2
2023/02/06 00:00:53;;;;;;;64.10;31.67;;;;;;;;;;5038984;28;20052;-75
2023/02/06 00:03:20;;;;;;;59.88;29.08;;;;;;;;;;5052122;28;20045;-76
2023/02/06 00:05:58;;;;;;;64.63;30.38;;;;;;;;;;5035371;28;20402;-76
2023/02/06 00:08:25;;;;;;;57.83;29.95;;;;;;;;;;5050741;28;20056;-76
2023/02/06 00:10:52;;;;;;;65.85;30.33;;;;;;;;;;5022805;28;20049;-75
2023/02/06 00:13:19;;;;;;;61.38;30.58;;;;;;;;;;5017763;28;20132;-77
2023/02/06 00:15:46;;;;;;;56.65;29.70;;;;;;;;;;5017914;28;20811;-76
2023/02/06 00:18:13;;;;;;;61.88;31.95;;;;;;;;;;5036465;28;20065;-76
2023/02/06 00:20:41;;;;;;;63.55;30.00;;;;;;;;;;5070416;28;20131;-76
2023/02/06 00:23:07;;;;;;;64.53;30.73;;;;;;;;;;5037926;28;20463;-76
2023/02/06 00:25:34;;;;;;;62.92;30.10;;;;;;;;;;5037511;28;20151;-75
2023/02/06 00:28:01;;;;;;;59.13;29.15;;;;;;;;;;5037079;28;20504;-75
2023/02/06 00:30:28;;;;;;;59.17;30.20;;;;;;;;;;5053945;28;20049;-75
2023/02/06 00:32:55;;;;;;;63.88;30.00;;;;;;;;;;5053514;28;20044;-75
2023/02/06 00:35:22;;;;;;;59.45;28.92;;;;;;;;;;5037111;28;20054;-77
2023/02/06 00:37:49;;;;;;;56.45;30.17;;;;;;;;;;5037089;28;20049;-77
2023/02/06 00:40:17;;;;;;;59.13;29.35;;;;;;;;;;5037189;28;20147;-76
2023/02/06 00:42:43;;;;;;;61.60;30.10;;;;;;;;;;5037191;28;20139;-77
2023/02/06 00:45:10;;;;;;;60.33;29.33;;;;;;;;;;5037687;28;20493;-76
2023/02/06 00:47:37;;;;;;;59.78;30.17;;;;;;;;;;5037441;28;20063;-76
2023/02/06 00:50:04;;;;;;;63.90;31.42;;;;;;;;;;5033551;28;20057;-76
2023/02/06 00:52:31;;;;;;;60.67;30.20;;;;;;;;;;5050648;28;20143;-75
2023/02/06 00:54:58;;;;;;;60.35;30.73;;;;;;;;;;5033543;28;20068;-74
2023/02/06 00:57:25;;;;;;;63.40;29.63;;;;;;;;;;5033544;28;20049;-75
2023/02/06 00:59:53;;;;;;;55.08;29.27;;;;;;;;;;5049813;28;20057;-74
2023/02/06 01:02:19;;;;;;;56.53;28.90;;;;;;;;;;5036617;28;20052;-75
2023/02/06 01:04:46;;;;;;;57.33;28.77;;;;;;;;;;5037845;28;20048;-74
2023/02/06 01:07:13;;;;;;;58.25;28.73;;;;;;;;;;5036920;28;20139;-74
2023/02/06 01:09:40;;;;;;;58.22;30.50;;;;;;;;;;5069535;28;20076;-74
2023/02/06 01:12:07;;;;;;;56.60;28.45;;;;;;;;;;5037208;28;20142;-75
2023/02/06 01:14:34;;;;;;;58.30;28.90;;;;;;;;;;5036640;28;20139;-75
2023/02/06 01:17:01;;;;;;;60.63;29.88;;;;;;;;;;5053340;28;20086;-75
2023/02/06 01:19:28;;;;;;;62.25;29.50;;;;;;;;;;5069524;28;20048;-75
2023/02/06 01:21:54;;;;;;;53.10;28.48;;;;;;;;;;5036745;28;20053;-75
2023/02/06 01:24:21;;;;;;;59.22;30.13;;;;;;;;;;5036912;28;20131;-77
2023/02/06 01:26:49;;;;;;;62.42;29.98;;;;;;;;;;5069620;28;20084;-75
2023/02/06 01:29:16;;;;;;;64.88;31.40;;;;;;;;;;5052703;28;20053;-75
2023/02/06 01:31:42;;;;;;;62.75;31.05;;;;;;;;;;5036044;28;20052;-75
2023/02/06 01:34:09;;;;;;;59.28;30.23;;;;;;;;;;5037647;28;20489;-75
2023/02/06 01:36:36;;;;;;;64.40;31.70;;;;;;;;;;5036211;28;20072;-75
2023/02/06 01:39:05;;;;;;;63.97;31.88;;;;;;;;;;5048989;28;20053;-74
2023/02/06 01:41:31;;;;;;;62.10;32.00;;;;;;;;;;5015815;28;20063;-75
2023/02/06 01:44:17;;;;;;;63.38;31.35;;;;;;;;;;5027904;28;20053;-75
2023/02/06 01:46:46;;;;;;;57.90;30.13;;;;;;;;;;5032322;28;20135;-75
2023/02/06 01:49:27;;;;;;;62.53;31.60;;;;;;;;;;5032284;28;20136;-75
2023/02/06 01:51:58;;;;;;;57.15;29.90;;;;;;;;;;5032723;28;20049;-75
2023/02/06 01:54:24;;;;;;;60.72;30.77;;;;;;;;;;5032306;28;20580;-75
2023/02/06 01:56:53;;;;;;;61.33;30.77;;;;;;;;;;5032358;28;20476;-74
2023/02/06 01:59:20;;;;;;;59.75;30.58;;;;;;;;;;5032222;28;20064;-75
2023/02/06 02:01:47;;;;;;;61.03;31.45;;;;;;;;;;5032742;28;20059;-75
2023/02/06 02:04:16;;;;;;;66.60;33.65;;;;;;;;;;5032408;28;20049;-75
2023/02/06 02:06:45;;;;;;;61.60;32.25;;;;;;;;;;5031698;28;20049;-75
2023/02/06 02:09:12;;;;;;;61.42;33.17;;;;;;;;;;5032223;28;20416;-75
2023/02/06 02:11:41;;;;;;;61.22;31.20;;;;;;;;;;5035416;28;20045;-75
2023/02/06 02:14:10;;;;;;;70.53;32.95;;;;;;;;;;5050963;28;20137;-76
2023/02/06 02:16:56;;;;;;;59.88;32.17;;;;;;;;;;5036208;28;20547;-76
2023/02/06 02:19:44;;;;;;;61.65;31.42;;;;;;;;;;5036502;28;20047;-75
2023/02/06 02:22:43;;;;;;;62.38;31.70;;;;;;;;;;5058952;28;20139;-75
2023/02/06 02:25:25;;;;;;;57.85;31.63;;;;;;;;;;5053253;28;20049;-77
2023/02/06 02:28:16;;;;;;;59.60;32.15;;;;;;;;;;5052005;28;20428;-76
2023/02/06 02:31:02;;;;;;;66.20;34.15;;;;;;;;;;5051982;28;20539;-75
2023/02/06 02:33:55;;;;;;;63.75;32.03;;;;;;;;;;5065352;28;20048;-74
2023/02/06 02:36:37;;;;;;;56.65;32.97;;;;;;;;;;5058783;28;20056;-76
2023/02/06 02:39:28;;;;;;;64.65;32.63;;;;;;;;;;5051207;28;20049;-76
2023/02/06 02:42:05;;;;;;;63.92;32.80;;;;;;;;;;5036942;28;20072;-76
2023/02/06 02:44:41;;;;;;;63.30;31.77;;;;;;;;;;5032367;28;20055;-76
2023/02/06 02:47:09;;;;;;;57.88;32.67;;;;;;;;;;5016728;28;20072;-75
2023/02/06 02:49:36;;;;;;;60.35;33.42;;;;;;;;;;5015393;28;20072;-74
2023/02/06 02:52:03;;;;;;;59.15;34.53;;;;;;;;;;5015546;28;20102;-75
2023/02/06 02:54:29;;;;;;;60.80;32.97;;;;;;;;;;5032556;28;20044;-75
2023/02/06 02:57:00;;;;;;;64.28;34.05;;;;;;;;;;5039188;28;20538;-75
2023/02/06 02:59:30;;;;;;;64.10;33.05;;;;;;;;;;5039492;28;20099;-75
2023/02/06 03:02:06;;;;;;;54.97;31.20;;;;;;;;;;5039573;28;20079;-75
2023/02/06 03:04:57;;;;;;;56.60;32.55;;;;;;;;;;5039286;28;20485;-75
2023/02/06 03:07:39;;;;;;;62.85;33.72;;;;;;;;;;5057852;28;20232;-75
2023/02/06 03:10:30;;;;;;;59.78;32.05;;;;;;;;;;5072296;28;20471;-74
2023/02/06 03:13:15;;;;;;;61.83;33.42;;;;;;;;;;5041526;28;20575;-74
2023/02/06 03:15:49;;;;;;;56.35;31.77;;;;;;;;;;5071713;28;20052;-74
2023/02/06 03:18:17;;;;;;;53.75;32.25;;;;;;;;;;5053120;28;20156;-74
2023/02/06 03:20:45;;;;;;;56.58;31.90;;;;;;;;;;5054954;28;20500;-73
2023/02/06 03:23:16;;;;;;;60.17;32.08;;;;;;;;;;5055357;28;20064;-73
2023/02/06 03:25:43;;;;;;;58.83;31.63;;;;;;;;;;5039588;28;20048;-74
2023/02/06 03:28:16;;;;;;;64.45;33.03;;;;;;;;;;5038488;28;20052;-75
2023/02/06 03:30:44;;;;;;;;;;;;;;;;;;5035426;28;20052;-74
2023/02/06 03:33:12;;;;;;;54.63;30.88;;;;;;;;;;5035041;28;19921;-74
2023/02/06 03:35:39;;;;;;;57.45;32.10;;;;;;;;;;5034863;28;20547;-76
2023/02/06 03:38:06;;;;;;;57.22;32.00;;;;;;;;;;5034852;28;20053;-75
2023/02/06 03:40:33;;;;;;;56.90;30.58;;;;;;;;;;5036218;28;20052;-76
2023/02/06 03:43:01;;;;;;;60.17;31.95;;;;;;;;;;5034710;28;20049;-75
2023/02/06 03:45:33;;;;;;;64.78;33.53;;;;;;;;;;5034955;28;20044;-76
2023/02/06 03:48:24;;;;;;;63.35;33.42;;;;;;;;;;5018390;28;20507;-75
2023/02/06 03:50:53;;;;;;;60.50;33.33;;;;;;;;;;5051104;28;20056;-75
2023/02/06 03:53:21;;;;;;;66.88;34.90;;;;;;;;;;5034732;28;20049;-75
2023/02/06 03:55:49;;;;;;;71.53;34.45;;;;;;;;;;5034679;28;20052;-76
2023/02/06 03:58:16;;;;;;;66.72;34.72;;;;;;;;;;5034249;28;20107;-75
2023/02/06 04:00:43;;;;;;;62.95;34.22;;;;;;;;;;5034744;28;20457;-75
2023/02/06 04:03:10;;;;;;;62.75;34.20;;;;;;;;;;5034609;28;20048;-75
2023/02/06 04:05:36;;;;;;;63.28;34.60;;;;;;;;;;5037366;28;20048;-75
2023/02/06 04:08:04;;;;;;;61.22;34.40;;;;;;;;;;5037726;28;20136;-75
2023/02/06 04:10:30;;;;;;;58.67;32.40;;;;;;;;;;5048104;28;20048;-74
2023/02/06 04:12:57;;;;;;;58.33;32.97;;;;;;;;;;5061906;28;20048;-75
2023/02/06 04:15:24;;;;;;;59.50;33.88;;;;;;;;;;5044609;28;20106;-75
2023/02/06 04:17:51;;;;;;;57.88;33.72;;;;;;;;;;5063396;28;20048;-75
2023/02/06 04:20:27;;;;;;;61.35;35.00;;;;;;;;;;5048335;28;20064;-75
2023/02/06 04:22:53;;;;;;;61.35;35.00;;;;;;;;;;5046667;28;20045;-75
2023/02/06 04:25:21;;;;;;;65.00;34.88;;;;;;;;;;5062063;28;20044;-75
2023/02/06 04:27:49;;;;;;;65.05;35.30;;;;;;;;;;5046701;28;20052;-76
2023/02/06 04:30:17;;;;;;;59.33;34.05;;;;;;;;;;5063136;28;20064;-76
2023/02/06 04:32:44;;;;;;;64.32;36.08;;;;;;;;;;5072286;28;20139;-76
2023/02/06 04:35:11;;;;;;;62.17;34.90;;;;;;;;;;5072881;28;20132;-76
2023/02/06 04:37:38;;;;;;;54.75;33.10;;;;;;;;;;5051208;28;20044;-75
2023/02/06 04:40:05;;;;;;;59.15;33.50;;;;;;;;;;5018903;28;20413;-75
2023/02/06 04:42:32;;;;;;;56.00;33.50;;;;;;;;;;5019237;28;20084;-75
2023/02/06 04:44:59;;;;;;;57.08;32.05;;;;;;;;;;5017628;28;20445;-76
2023/02/06 04:47:26;;;;;;;58.25;32.70;;;;;;;;;;5017441;28;20055;-76
2023/02/06 04:49:53;;;;;;;55.60;31.77;;;;;;;;;;5022301;28;20132;-76
2023/02/06 04:52:20;;;;;;;51.70;31.92;;;;;;;;;;5066597;28;20141;-74
2023/02/06 04:54:46;;;;;;;55.35;32.15;;;;;;;;;;5049855;28;20053;-74
2023/02/06 04:57:13;;;;;;;58.67;32.90;;;;;;;;;;5033371;28;20433;-75
2023/02/06 04:59:40;;;;;;;54.45;32.70;;;;;;;;;;5033541;28;20053;-75
2023/02/06 05:02:06;;;;;;;55.42;31.48;;;;;;;;;;5036728;28;20424;-74
2023/02/06 05:04:33;;;;;;;53.85;31.30;;;;;;;;;;5036449;28;20048;-75
2023/02/06 05:07:00;;;;;;;50.58;31.08;;;;;;;;;;5036497;28;20049;-75
2023/02/06 05:09:29;;;;;;;51.22;30.20;;;;;;;;;;5053409;28;20459;-75
2023/02/06 05:11:56;;;;;;;52.15;29.92;;;;;;;;;;5037079;28;20424;-76
2023/02/06 05:14:22;;;;;;;54.60;31.42;;;;;;;;;;5050523;28;20055;-76
2023/02/06 05:16:49;;;;;;;48.08;30.80;;;;;;;;;;5034575;28;20060;-75
2023/02/06 05:19:16;;;;;;;46.97;30.50;;;;;;;;;;5016881;28;20202;-76
2023/02/06 05:21:43;;;;;;;43.90;28.52;;;;;;;;;;5049275;28;20057;-76
2023/02/06 05:24:10;;;;;;;44.42;28.67;;;;;;;;;;5033265;28;20068;-75
2023/02/06 05:26:37;;;;;;;44.35;29.70;;;;;;;;;;5044702;28;20045;-76
2023/02/06 05:29:03;;;;;;;44.15;28.17;;;;;;;;;;5035796;28;20044;-77
2023/02/06 05:31:30;;;;;;;51.85;31.20;;;;;;;;;;5065222;28;20052;-77
2023/02/06 05:33:57;;;;;;;42.53;29.02;;;;;;;;;;5049637;28;20060;-77
2023/02/06 05:36:24;;;;;;;44.92;29.67;;;;;;;;;;5065895;28;20048;-77
2023/02/06 05:38:51;;;;;;;44.63;28.65;;;;;;;;;;5050280;28;20108;-77
2023/02/06 05:41:17;;;;;;;46.45;31.17;;;;;;;;;;5066752;28;20053;-75
2023/02/06 05:43:44;;;;;;;50.03;31.73;;;;;;;;;;5048562;28;20055;-76
2023/02/06 05:46:12;;;;;;;46.35;30.80;;;;;;;;;;5058224;28;20366;-76
2023/02/06 05:48:39;;;;;;;46.85;28.95;;;;;;;;;;5046186;28;20083;-76
2023/02/06 05:51:06;;;;;;;42.90;29.27;;;;;;;;;;5069919;28;20059;-76
2023/02/06 05:53:36;;;;;;;42.65;27.27;;;;;;;;;;5035993;28;20500;-76
2023/02/06 05:56:04;;;;;;;48.13;31.63;;;;;;;;;;5068764;28;20080;-77
2023/02/06 05:58:31;;;;;;;45.67;30.20;;;;;;;;;;5052597;28;20108;-77
2023/02/06 06:00:57;;;;;;;49.92;30.23;;;;;;;;;;5052495;28;20053;-76
2023/02/06 06:03:24;;;;;;;41.72;28.90;;;;;;;;;;5052781;28;20072;-76
2023/02/06 06:05:52;;;;;;;40.47;26.95;;;;;;;;;;5037928;28;20114;-76
2023/02/06 06:08:19;;;;;;;39.47;26.92;;;;;;;;;;5033551;28;20052;-76
2023/02/06 06:10:48;;;;;;;42.70;26.77;;;;;;;;;;5048714;28;20446;-76
2023/02/06 06:13:15;;;;;;;42.03;27.65;;;;;;;;;;5048723;28;20052;-76
2023/02/06 06:15:42;;;;;;;40.60;27.60;;;;;;;;;;5051124;28;20086;-76
2023/02/06 06:18:09;;;;;;;37.35;27.00;;;;;;;;;;5049440;28;20052;-76
2023/02/06 06:20:36;;;;;;;40.05;26.70;;;;;;;;;;5033845;28;20143;-75
2023/02/06 06:23:03;;;;;;;41.33;25.95;;;;;;;;;;5032739;28;20055;-75
2023/02/06 06:25:30;;;;;;;37.60;25.55;;;;;;;;;;5026450;28;20040;-76
2023/02/06 06:27:56;;;;;;;36.53;25.75;;;;;;;;;;5051233;28;20074;-75
2023/02/06 06:30:23;;;;;;;39.45;25.08;;;;;;;;;;5051508;28;20117;-76
2023/02/06 06:32:51;;;;;;;38.20;26.42;;;;;;;;;;5051649;28;20429;-75
2023/02/06 06:35:18;;;;;;;39.83;26.92;;;;;;;;;;5035262;28;20048;-76
2023/02/06 06:37:44;;;;;;;39.67;26.15;;;;;;;;;;5035216;28;20187;-76
2023/02/06 06:40:11;;;;;;;34.25;24.20;;;;;;;;;;5036003;28;20531;-76
2023/02/06 06:42:38;;;;;;;37.50;26.15;;;;;;;;;;5051461;28;20099;-76
2023/02/06 06:45:06;;;;;;;34.75;25.10;;;;;;;;;;5035395;28;20044;-76
2023/02/06 06:47:33;;;;;;;38.20;25.88;;;;;;;;;;5035274;28;20493;-76
2023/02/06 06:49:59;;;;;;;39.88;26.85;;;;;;;;;;5035117;28;20098;-76
2023/02/06 06:52:26;;;;;;;38.65;25.83;;;;;;;;;;5051746;28;20057;-75
2023/02/06 06:54:53;;;;;;;38.35;26.15;;;;;;;;;;5034973;28;20048;-76
2023/02/06 06:57:21;;;;;;;38.30;25.83;;;;;;;;;;5035563;28;20094;-75
2023/02/06 06:59:48;;;;;;;39.95;26.20;;;;;;;;;;5051504;28;20049;-76
2023/02/06 07:02:15;;;;;;;38.25;25.60;;;;;;;;;;5034665;28;20055;-76
2023/02/06 07:04:42;;;;;;;39.50;26.15;;;;;;;;;;5031059;28;20053;-75
2023/02/06 07:07:09;;;;;;;37.50;25.88;;;;;;;;;;5015295;28;20056;-75
2023/02/06 07:09:36;;;;;;;35.60;24.33;;;;;;;;;;5031634;28;20098;-75
2023/02/06 07:12:03;;;;;;;37.08;25.10;;;;;;;;;;5031081;28;20084;-75
2023/02/06 07:14:29;;;;;;;35.72;24.60;;;;;;;;;;5048473;28;20057;-74
2023/02/06 07:16:58;;;;;;;34.67;23.65;;;;;;;;;;5047307;28;20661;-72
2023/02/06 07:19:24;;;;;;;32.65;22.00;;;;;;;;;;5031375;28;20053;-76
2023/02/06 07:21:51;;;;;;;33.97;23.85;;;;;;;;;;5048082;28;20064;-75
2023/02/06 07:24:18;;;;;;;39.20;24.35;;;;;;;;;;5047775;28;20421;-75
2023/02/06 07:26:44;;;;;;;37.15;23.02;;;;;;;;;;5047898;28;20037;-76
2023/02/06 07:29:11;;;;;;;34.58;23.38;;;;;;;;;;5034035;28;20420;-76
2023/02/06 07:31:38;;;;;;;36.78;23.23;;;;;;;;;;5033361;28;20055;-76
2023/02/06 07:34:05;;;;;;;34.72;23.48;;;;;;;;;;5033514;28;20048;-76
2023/02/06 07:36:32;;;;;;;31.33;22.35;;;;;;;;;;5033349;28;20078;-76
2023/02/06 07:39:00;;;;;;;32.92;22.00;;;;;;;;;;5033289;28;20054;-76
2023/02/06 07:41:27;;;;;;;30.23;21.35;;;;;;;;;;5036520;28;20052;-77
2023/02/06 07:43:53;;;;;;;29.60;19.40;;;;;;;;;;5037118;28;20048;-77
2023/02/06 07:46:20;;;;;;;29.05;20.27;;;;;;;;;;5037629;28;20072;-76
2023/02/06 07:48:47;;;;;;;28.90;19.58;;;;;;;;;;5053588;28;20045;-77
2023/02/06 07:51:14;;;;;;;27.73;19.08;;;;;;;;;;5036913;28;20044;-76
2023/02/06 07:53:41;;;;;;;28.05;20.27;;;;;;;;;;5052653;28;20055;-76
2023/02/06 07:56:13;;;;;;;26.83;19.02;;;;;;;;;;5049789;28;20143;-76
2023/02/06 07:58:39;;;;;;;27.25;18.00;;;;;;;;;;5017290;28;20083;-76
2023/02/06 08:01:06;;;;;;;27.42;16.58;;;;;;;;;;5016988;28;20088;-76
2023/02/06 08:03:33;;;;;;;24.40;17.65;;;;;;;;;;5016872;28;20489;-75
2023/02/06 08:06:09;;;;;;;22.20;14.95;;;;;;;;;;5016198;28;20425;-75
2023/02/06 08:08:37;;;;;;;17.02;12.75;;;;;;;;;;5032551;28;20513;-75
2023/02/06 08:11:06;;;;;;;16.25;11.95;;;;;;;;;;5053794;28;20056;-75
2023/02/06 08:13:34;;;;;;;16.10;12.40;;;;;;;;;;5037086;28;20139;-75
2023/02/06 08:16:11;;;;;;;16.10;11.95;;;;;;;;;;5036516;28;20447;-74
2023/02/06 08:18:38;;;;;;;18.08;11.52;;;;;;;;;;5036958;28;20577;-75
2023/02/06 08:21:10;;;;;;;14.10;10.40;;;;;;;;;;5049812;28;20505;-75
2023/02/06 08:23:37;;;;;;;13.32;10.27;;;;;;;;;;5017693;28;20053;-75
2023/02/06 08:26:12;;;;;;;19.10;10.82;;;;;;;;;;5030816;28;20044;-75
2023/02/06 08:28:39;;;;;;;16.70;10.75;;;;;;;;;;5038140;28;20055;-74
2023/02/06 08:31:12;;;;;;;13.15;9.77;;;;;;;;;;5037934;28;20098;-75
2023/02/06 08:33:39;;;;;;;15.30;10.75;;;;;;;;;;5037255;28;20040;-75
2023/02/06 08:36:06;;;;;;;17.15;10.38;;;;;;;;;;5037150;28;20044;-75
2023/02/06 08:38:33;;;;;;;15.20;10.10;;;;;;;;;;5053660;28;20489;-75
2023/02/06 08:41:00;;;;;;;15.00;9.85;;;;;;;;;;5053578;28;20059;-74
2023/02/06 08:43:27;;;;;;;13.35;9.68;;;;;;;;;;5031738;28;20056;-75
2023/02/06 08:45:58;;;;;;;14.07;10.38;;;;;;;;;;5030383;28;20051;-76
2023/02/06 08:48:25;;;;;;;13.05;9.50;;;;;;;;;;5035072;28;20122;-76
2023/02/06 08:51:03;;;;;;;13.75;9.98;;;;;;;;;;5032153;28;20056;-76
2023/02/06 08:53:32;;;;;;;12.25;9.65;;;;;;;;;;5041052;28;20225;-75
2023/02/06 08:56:00;;;;;;;14.65;9.77;;;;;;;;;;5022448;28;20123;-76
2023/02/06 08:58:27;;;;;;;13.73;9.30;;;;;;;;;;5041593;28;20067;-76
2023/02/06 09:00:54;;;;;;;19.92;10.32;;;;;;;;;;5022956;28;20061;-76
2023/02/06 09:03:21;;;;;;;15.38;9.65;;;;;;;;;;5070707;28;20051;-76
2023/02/06 09:05:48;;;;;;;15.23;8.82;;;;;;;;;;5033232;28;20140;-75
2023/02/06 09:08:19;;;;;;;14.60;9.10;;;;;;;;;;5038874;28;20115;-75
2023/02/06 09:10:46;;;;;;;16.38;9.40;;;;;;;;;;5042810;28;20089;-76
2023/02/06 09:13:14;;;;;;;12.73;8.50;;;;;;;;;;5030379;28;20076;-76
2023/02/06 09:15:41;;;;;;;10.52;8.00;;;;;;;;;;5023935;28;20067;-75
2023/02/06 09:18:09;;;;;;;14.20;8.65;;;;;;;;;;5028652;28;20048;-75
2023/02/06 09:20:35;;;;;;;10.63;8.50;;;;;;;;;;5023012;28;20052;-76
2023/02/06 09:23:02;;;;;;;12.75;8.02;;;;;;;;;;5038177;28;20049;-75
2023/02/06 09:25:29;;;;;;;10.98;7.85;;;;;;;;;;5039577;28;20076;-76
2023/02/06 09:27:56;;;;;;;16.30;9.57;;;;;;;;;;5031500;28;20048;-76
2023/02/06 09:30:24;;;;;;;12.27;9.10;;;;;;;;;;5049879;28;20064;-75
2023/02/06 09:32:51;;;;;;;16.00;9.60;;;;;;;;;;5040027;28;20059;-76
2023/02/06 09:35:17;;;;;;;13.40;9.27;;;;;;;;;;5033526;28;20048;-75
2023/02/06 09:37:44;;;;;;;11.82;9.05;;;;;;;;;;5055735;28;20131;-76
2023/02/06 09:40:11;;;;;;;11.85;8.40;;;;;;;;;;5038511;28;20106;-77
2023/02/06 09:42:38;;;;;;;12.82;7.88;;;;;;;;;;5025286;28;20056;-76
2023/02/06 09:45:08;;;;;;;12.88;8.93;;;;;;;;;;5034401;28;20052;-84
2023/02/06 09:47:38;;;;;;;13.60;8.55;;;;;;;;;;5062466;28;20045;-76
2023/02/06 09:50:15;;;;;;;11.55;7.75;;;;;;;;;;5035288;28;20049;-76
2023/02/06 09:52:45;;;;;;;13.93;9.50;;;;;;;;;;5053900;28;20063;-76
2023/02/06 09:55:37;;;;;;;16.10;9.15;;;;;;;;;;5067644;28;20055;-76
2023/02/06 09:58:24;;;;;;;13.27;8.57;;;;;;;;;;5068273;28;20140;-75
2023/02/06 10:00:59;;;;;;;13.15;8.82;;;;;;;;;;5053382;28;20496;-75
2023/02/06 10:03:51;;;;;;;11.57;7.88;;;;;;;;;;5035688;28;20067;-76
2023/02/06 10:06:26;;;;;;;11.20;7.80;;;;;;;;;;5036226;28;20507;-75
2023/02/06 10:09:06;;;;;;;12.88;8.05;;;;;;;;;;5031581;28;20433;-76
2023/02/06 10:11:32;;;;;;;12.88;7.72;;;;;;;;;;5065149;28;20410;-75
2023/02/06 10:14:02;;;;;;;7.53;6.45;;;;;;;;;;5065252;28;20060;-76
2023/02/06 10:16:38;;;;;;;9.45;6.30;;;;;;;;;;5032501;28;20049;-76
2023/02/06 10:19:13;;;;;;;8.73;5.70;;;;;;;;;;5048436;28;20136;-76
2023/02/06 10:22:04;;;;;;;7.18;4.68;;;;;;;;;;5032402;28;20049;-83
2023/02/06 10:24:36;;;;;;;8.23;4.18;;;;;;;;;;5031726;28;20099;-76
2023/02/06 10:27:07;;;;;;;6.88;4.53;;;;;;;;;;5020571;28;20045;-75
2023/02/06 10:29:35;;;;;;;7.20;4.38;;;;;;;;;;5022298;28;20493;-80
2023/02/06 10:32:27;;;;;;;4.65;3.53;;;;;;;;;;5022984;28;20130;-77
2023/02/06 10:35:15;;;;;;;7.30;4.18;;;;;;;;;;5055519;28;20079;-76
2023/02/06 10:38:15;;;;;;;5.95;3.65;;;;;;;;;;5063131;28;20445;-76
2023/02/06 10:40:48;;;;;;;4.68;3.45;;;;;;;;;;5050766;28;20053;-76
2023/02/06 10:43:31;;;;;;;4.13;3.22;;;;;;;;;;5048732;28;20049;-76
2023/02/06 10:46:27;;;;;;;5.90;3.92;;;;;;;;;;5041741;28;20148;-76
2023/02/06 10:49:21;;;;;;;7.07;3.97;;;;;;;;;;5049034;28;20052;-76
2023/02/06 10:51:54;;;;;;;6.85;3.47;;;;;;;;;;5042622;28;20128;-76
2023/02/06 10:54:38;;;;;;;5.90;3.55;;;;;;;;;;5038764;28;20123;-76
2023/02/06 10:57:12;;;;;;;4.95;3.10;;;;;;;;;;5030351;28;20045;-76
2023/02/06 10:59:46;;;;;;;8.27;3.63;;;;;;;;;;5035959;28;20127;-76
2023/02/06 11:02:29;;;;;;;6.90;3.70;;;;;;;;;;5054524;28;20083;-76
2023/02/06 11:05:08;;;;;;;5.53;3.58;;;;;;;;;;5055285;28;20489;-76
2023/02/06 11:07:44;;;;;;;7.90;4.63;;;;;;;;;;5041469;28;20048;-76
2023/02/06 11:10:17;;;;;;;5.45;4.18;;;;;;;;;;5033212;28;20056;-76
2023/02/06 11:12:50;;;;;;;5.47;3.75;;;;;;;;;;5044577;28;20055;-76
2023/02/06 11:15:24;;;;;;;5.60;4.22;;;;;;;;;;5051272;28;20530;-76
2023/02/06 11:17:52;;;;;;;8.48;3.88;;;;;;;;;;5054969;28;20060;-75
2023/02/06 11:20:22;;;;;;;4.90;3.83;;;;;;;;;;5036925;28;20082;-75
2023/02/06 11:22:49;;;;;;;5.07;3.72;;;;;;;;;;5038673;28;20520;-76
2023/02/06 11:25:26;;;;;;;5.18;3.90;;;;;;;;;;5042213;28;20048;-76
2023/02/06 11:27:54;;;;;;;6.90;3.90;;;;;;;;;;5052107;28;20057;-77
2023/02/06 11:30:26;;;;;;;6.15;4.35;;;;;;;;;;5037238;28;20415;-76
2023/02/06 11:32:58;;;;;;;6.28;4.60;;;;;;;;;;5052321;28;20048;-76
2023/02/06 11:35:38;;;;;;;7.22;3.72;;;;;;;;;;5036580;28;20252;-76
2023/02/06 11:38:18;;;;;;;6.13;4.28;;;;;;;;;;5037894;28;20047;-76
2023/02/06 11:41:05;;;;;;;8.02;4.45;;;;;;;;;;5033238;28;20053;-76
2023/02/06 11:43:41;;;;;;;7.22;4.40;;;;;;;;;;5017196;28;20110;-76
2023/02/06 11:46:25;;;;;;;6.82;4.40;;;;;;;;;;5049868;28;20414;-76
2023/02/06 11:48:54;;;;;;;7.57;5.05;;;;;;;;;;5017036;28;20052;-76
2023/02/06 11:51:22;;;;;;;7.60;4.90;;;;;;;;;;5049614;28;20485;-76
2023/02/06 11:53:59;;;;;;;9.48;4.82;;;;;;;;;;5036171;28;20056;-76
2023/02/06 11:56:27;;;;;;;7.97;5.75;;;;;;;;;;5053601;28;20056;-76
2023/02/06 11:59:06;;;;;;;9.88;4.93;;;;;;;;;;5036274;28;20056;-75
2023/02/06 12:01:41;;;;;;;5.32;4.50;;;;;;;;;;5036597;28;20348;-77
2023/02/06 12:04:24;;;;;;;7.68;5.50;;;;;;;;;;5037339;28;20401;-76
2023/02/06 12:07:02;;;;;;;7.65;5.50;;;;;;;;;;5036744;28;20132;-75
2023/02/06 12:09:28;;;;;;;7.03;5.43;;;;;;;;;;5052356;28;20062;-76
2023/02/06 12:12:24;;;;;;;7.45;4.80;;;;;;;;;;5032879;28;20053;-76
2023/02/06 12:14:57;;;;;;;6.75;5.20;;;;;;;;;;5048946;28;20049;-77
2023/02/06 12:17:30;;;;;;;10.15;5.43;;;;;;;;;;5032756;28;20052;-76
2023/02/06 12:20:10;;;;;;;8.40;5.22;;;;;;;;;;5049283;28;20057;-76
2023/02/06 12:22:43;;;;;;;7.68;5.72;;;;;;;;;;5052258;28;20476;-76
2023/02/06 12:25:26;;;;;;;8.00;5.75;;;;;;;;;;5036525;28;20068;-76
2023/02/06 12:27:54;;;;;;;;;;;;;;;;;;5037410;28;20052;-76
2023/02/06 12:30:44;;;;;;;10.43;6.70;;;;;;;;;;5052630;28;19925;-76
2023/02/06 12:33:21;;;;;;;12.27;6.45;;;;;;;;;;5052788;28;20052;-73
2023/02/06 12:35:51;;;;;;;10.60;6.80;;;;;;;;;;5025179;28;20057;-73
2023/02/06 12:38:39;;;;;;;11.32;7.18;;;;;;;;;;5017525;28;20049;-76
2023/02/06 12:41:06;;;;;;;9.52;5.95;;;;;;;;;;5020075;28;20451;-75
2023/02/06 12:43:33;;;;;;;8.60;4.95;;;;;;;;;;5050146;28;20045;-76
2023/02/06 12:46:20;;;;;;;7.43;5.25;;;;;;;;;;5017160;28;20527;-76
2023/02/06 12:48:54;;;;;;;6.60;4.22;;;;;;;;;;5031028;28;20074;-76
2023/02/06 12:51:25;;;;;;;4.85;4.20;;;;;;;;;;5070151;28;20052;-76
2023/02/06 12:54:00;;;;;;;6.18;3.85;;;;;;;;;;5026418;28;20067;-76
2023/02/06 12:56:45;;;;;;;5.88;4.47;;;;;;;;;;5030004;28;20044;-76
2023/02/06 12:59:15;;;;;;;5.57;3.90;;;;;;;;;;5041147;28;20056;-76
2023/02/06 13:02:15;;;;;;;5.55;3.40;;;;;;;;;;5055463;28;20594;-76
2023/02/06 13:04:42;;;;;;;5.07;3.60;;;;;;;;;;5048900;28;20045;-76
2023/02/06 13:07:14;;;;;;;5.20;3.38;;;;;;;;;;5034253;28;20076;-76
2023/02/06 13:10:07;;;;;;;5.40;3.15;;;;;;;;;;5027389;28;20044;-76
2023/02/06 13:12:34;;;;;;;5.23;3.83;;;;;;;;;;5026413;28;20041;-76
2023/02/06 13:15:06;;;;;;;5.07;2.95;;;;;;;;;;5027211;28;20053;-76
2023/02/06 13:17:35;;;;;;;4.28;2.88;;;;;;;;;;5063903;28;20048;-76
2023/02/06 13:20:06;;;;;;;4.95;3.22;;;;;;;;;;5023676;28;20052;-76
2023/02/06 13:22:36;;;;;;;5.60;3.40;;;;;;;;;;5046170;28;20520;-76
2023/02/06 13:25:24;;;;;;;4.90;3.10;;;;;;;;;;5055540;28;20052;-75
2023/02/06 13:27:52;;;;;;;5.65;3.00;;;;;;;;;;5059869;28;20490;-76
2023/02/06 13:30:28;;;;;;;4.65;3.10;;;;;;;;;;5021551;28;20144;-75
2023/02/06 13:33:08;;;;;;;5.45;2.83;;;;;;;;;;5059134;28;20464;-76
2023/02/06 13:35:36;;;;;;;5.57;3.28;;;;;;;;;;5048797;28;20044;-76
2023/02/06 13:38:23;;;;;;;5.00;3.00;;;;;;;;;;5032921;28;20051;-76
2023/02/06 13:41:15;;;;;;;4.13;2.97;;;;;;;;;;5037305;28;20492;-76
2023/02/06 13:43:53;;;;;;;5.45;3.15;;;;;;;;;;5053960;28;20045;-76
2023/02/06 13:46:21;;;;;;;5.55;3.50;;;;;;;;;;5042484;28;20531;-76
2023/02/06 13:49:07;;;;;;;5.00;2.70;;;;;;;;;;5022863;28;20076;-75
2023/02/06 13:52:14;;;;;;;2.97;2.30;;;;;;;;;;5056419;28;20051;-75
2023/02/06 13:55:08;;;;;;;3.33;2.10;;;;;;;;;;5065381;28;20051;-75
2023/02/06 13:58:20;;;;;;;5.65;2.25;;;;;;;;;;5055970;28;20044;-75
2023/02/06 14:00:48;;;;;;;3.22;2.30;;;;;;;;;;5056207;28;20049;-75
2023/02/06 14:03:22;;;;;;;3.70;2.58;;;;;;;;;;5021325;28;20053;-75
2023/02/06 14:06:38;;;;;;;4.18;2.25;;;;;;;;;;5034226;28;20083;-75
2023/02/06 14:09:29;;;;;;;3.35;2.53;;;;;;;;;;5041615;28;20485;-75
2023/02/06 14:12:38;;;;;;;2.72;2.17;;;;;;;;;;5039761;28;20532;-75
2023/02/06 14:15:20;;;;;;;4.18;2.78;;;;;;;;;;5058581;28;20072;-75
2023/02/06 14:17:53;;;;;;;3.53;2.50;;;;;;;;;;5047563;28;20063;-76
2023/02/06 14:20:31;;;;;;;4.32;2.83;;;;;;;;;;5056761;28;20845;-75
2023/02/06 14:23:37;;;;;;;5.20;2.83;;;;;;;;;;5048116;28;20056;-76
2023/02/06 14:26:08;;;;;;;3.42;2.67;;;;;;;;;;5058232;28;20629;-75
2023/02/06 14:28:47;;;;;;;3.15;2.28;;;;;;;;;;5047771;28;20535;-76
2023/02/06 14:31:20;;;;;;;4.75;3.20;;;;;;;;;;5053440;28;20049;-76
2023/02/06 14:33:59;;;;;;;6.03;2.97;;;;;;;;;;5057174;28;20497;-75
2023/02/06 14:36:31;;;;;;;4.60;3.05;;;;;;;;;;5054611;28;20406;-75
2023/02/06 14:39:26;;;;;;;5.55;2.60;;;;;;;;;;5048698;28;20044;-75
2023/02/06 14:41:54;;;;;;;4.90;2.80;;;;;;;;;;5057248;28;20049;-75
2023/02/06 14:44:28;;;;;;;4.55;2.85;;;;;;;;;;5023310;28;20496;-75
2023/02/06 14:46:56;;;;;;;5.50;3.17;;;;;;;;;;5021334;28;20080;-75
2023/02/06 14:49:32;;;;;;;4.82;3.00;;;;;;;;;;5027461;28;20045;-76
2023/02/06 14:52:00;;;;;;;5.15;3.00;;;;;;;;;;5073881;28;20078;-76
2023/02/06 14:54:35;;;;;;;4.88;2.47;;;;;;;;;;5025034;28;20873;-74